首页
METAR-TAF:

METAR-TAF

机场 :

莫斯塔爾, 波斯尼亚和黑塞哥维那

纬度: 43-21N, 经度: 017-48E, 海拔: 108米

当前天气观测

该预报发布于5小时和35分钟前的14:00 UTC
风速6节,风向,在西北北转东北之间变化
温度 24°C
湿度 29%
气压 1014 hPa
能见度10公里或以上
少量云层高于4500英尺
散云层高于5000英尺, 塔状积云.

METAR: LQMO 291400Z 35006KT 310V030 9999 FEW045 SCT050TCU 24/05 Q1014

时间: 21:35 (19:35 UTC)

预报

该预报发布于8小时和35分钟前的11:00 UTC
预报有效从29日的 12点(UTC)到 30日的 12点(UTC)
风速7节,风向北转东北
能见度10公里或以上
少量云层高于4000英尺
散云层高于7000英尺
几率 40% :
短暂存在
从 29日的 12点(UTC)到 29日的 17点(UTC)
风速15节,风向西北
能見度: 5000
少量云层高于3000英尺, 塔状积云.
散云层高于4000英尺
阵雨
几率 30% :
短暂存在
从 29日的 12点(UTC)到 29日的 15点(UTC)
风速15节,风向多变
能見度: 3000
少量云层高于3000英尺, 积雨云.
散云层高于4000英尺
雷暴, 雨
几率 40% :
短暂存在
从 30日的 09点(UTC)到 30日的 12点(UTC)
风速15节,风向西转西南
能見度: 3000
少量云层高于3000英尺, 积雨云.
散云层高于4000英尺
雷暴, 雨

TAF: LQMO 291100Z 2912/3012 02007KT 9999 FEW040 SCT070 TX25/2912Z TN14/3003Z PROB40 TEMPO 2912/2917 32015KT 5000 SHRA FEW030TCU SCT040 PROB30 TEMPO 2912/2915 VRB15KT 3000 TSRA FEW030CB SCT040 PROB40 TEMPO 3009/3012 24015KT 3000 TSRA FEW030CB SCT040

超过4000个机场的气象观测和天气预报(METAR&TAF报告)。

可查询的气象台以黄色和红色小点在地图上表示。

将鼠标移到小点上方,可查看气象台名称。

然后点击查看天气观测和预报。

如需切换地图:点击带黑十字的绿色按钮放大地图;点击带横线的绿色按钮缩小地图;或者点击绿色箭头查看邻近地区的地图。


METAR-TAF: